< Cyclone 197106 1971 Season Cyclone 197108 >
Cyclone 197107 (MYRTLE)
General InformationTrack Information on Google Maps || ResourceGoogle EarthGE AnimationAtom FeedGeoJSON
Detalied Best Track (Time Zone = UTC)
Year Month Day Hour Lat. Long. Pressure (hPa) Wind (kt) Class Image Chart
1971 1 15 00 -11.9 99.5 1004 0 0 -- --
1971 1 15 03 -12.1 98.9 1004 0 0 -- --
1971 1 15 06 -12.3 98.3 1004 0 0 -- --
1971 1 15 09 -12.5 97.7 1004 0 0 -- --
1971 1 15 12 -12.7 97.2 1003 0 0 -- --
1971 1 15 15 -12.9 96.6 1003 0 0 -- --
1971 1 15 18 -13.1 96.1 1002 0 0 -- --
1971 1 15 21 -13.3 95.6 1001 0 0 -- --
1971 1 16 00 -13.5 95.0 1000 0 0 -- --
1971 1 16 03 -13.7 94.2 999 0 0 -- --
1971 1 16 06 -13.9 93.5 997 0 0 -- --
1971 1 16 09 -14.2 92.7 994 0 0 -- --
1971 1 16 12 -14.4 92.0 991 0 0 -- --
1971 1 16 15 -14.6 91.2 988 0 0 -- --
1971 1 16 18 -14.7 90.5 985 0 0 -- --
1971 1 16 21 -14.8 89.7 982 0 0 -- --
1971 1 17 00 -14.9 89.0 980 0 0 -- --
1971 1 17 03 -14.9 88.3 980 0 0 -- --
1971 1 17 06 -14.9 87.5 980 0 0 -- --
1971 1 17 09 -14.9 86.7 980 0 0 -- --
1971 1 17 12 -14.9 86.0 980 0 0 -- --
1971 1 17 15 -14.9 85.2 980 0 0 -- --
1971 1 17 18 -14.9 84.5 980 0 0 -- --
1971 1 17 21 -14.9 83.7 980 0 0 -- --
1971 1 18 00 -14.9 83.0 980 0 0 -- --
1971 1 18 03 -14.9 82.4 979 0 0 -- --
1971 1 18 06 -14.9 81.7 978 0 0 -- --
1971 1 18 09 -14.9 81.1 977 0 0 -- --
1971 1 18 12 -14.9 80.5 976 0 0 -- --
1971 1 18 15 -14.9 79.9 975 0 0 -- --
1971 1 18 18 -14.9 79.2 973 0 0 -- --
1971 1 18 21 -14.9 78.6 971 0 0 -- --
1971 1 19 00 -14.9 78.0 970 0 0 -- --
< Cyclone 197106 1971 Season Cyclone 197108 >

Help